Time;durP1;ratioP1;P1;durP2;ratioP2;P2;SDS_P1;SDS_P2;PMS_P1;PMS_P2;Temp;Humidity;BMP_temperature;BMP_pressure;BME280_temperature;BME280_humidity;BME280_pressure;Samples;Min_cycle;Max_cycle;Signal;HPM_P1;HPM_P2
2021/01/21 00:00:56;;;;;;;10.48;3.20;;;4.20;96.20;;;;;;4991271;28;20074;-64
2021/01/21 00:03:22;;;;;;;7.45;2.88;;;4.10;96.20;;;;;;4990785;28;20041;-64
2021/01/21 00:05:47;;;;;;;13.00;3.33;;;4.20;96.30;;;;;;4991242;28;20387;-64
2021/01/21 00:08:13;;;;;;;7.25;3.30;;;4.20;95.70;;;;;;4991040;28;20077;-64
2021/01/21 00:10:38;;;;;;;8.13;3.30;;;4.20;95.80;;;;;;4991087;28;20027;-64
2021/01/21 00:13:04;;;;;;;10.93;3.38;;;4.30;95.30;;;;;;4990336;28;20396;-64
2021/01/21 00:15:29;;;;;;;10.25;3.72;;;4.10;96.20;;;;;;4991040;28;20215;-64
2021/01/21 00:17:55;;;;;;;9.60;2.80;;;4.30;94.70;;;;;;4991065;28;20038;-64
2021/01/21 00:20:20;;;;;;;8.75;2.97;;;4.40;95.80;;;;;;4990999;28;20105;-64
2021/01/21 00:22:46;;;;;;;7.43;2.70;;;4.40;95.80;;;;;;4990391;28;20031;-64
2021/01/21 00:25:12;;;;;;;7.80;2.85;;;4.40;95.70;;;;;;4990930;28;20034;-64
2021/01/21 00:27:37;;;;;;;8.95;3.25;;;4.40;95.50;;;;;;4991083;28;20034;-64
2021/01/21 00:30:09;;;;;;;6.85;2.42;;;4.50;94.30;;;;;;4990936;28;20031;-64
2021/01/21 00:32:34;;;;;;;9.35;2.67;;;4.40;95.50;;;;;;4992053;28;20030;-64
2021/01/21 00:35:00;;;;;;;8.73;2.80;;;4.40;95.50;;;;;;4994671;28;20037;-64
2021/01/21 00:37:25;;;;;;;6.63;2.60;;;4.30;95.80;;;;;;4994607;28;20365;-64
2021/01/21 00:39:51;;;;;;;6.57;2.50;;;4.20;95.80;;;;;;4993324;28;20026;-64
2021/01/21 00:42:16;;;;;;;6.80;2.58;;;4.20;96.00;;;;;;4993902;28;20087;-64
2021/01/21 00:44:42;;;;;;;12.00;3.10;;;4.20;96.20;;;;;;4994474;28;20053;-64
2021/01/21 00:47:07;;;;;;;6.90;2.50;;;4.20;95.90;;;;;;4994455;28;20026;-64
2021/01/21 00:49:33;;;;;;;5.72;2.47;;;4.20;96.30;;;;;;4994499;28;20030;-64
2021/01/21 00:51:58;;;;;;;5.72;2.28;;;4.40;95.20;;;;;;4993785;28;20559;-64
2021/01/21 00:54:24;;;;;;;5.80;2.30;;;4.40;95.60;;;;;;4994101;28;20041;-64
2021/01/21 00:56:49;;;;;;;5.28;2.42;;;4.60;94.10;;;;;;4994327;28;20476;-64
2021/01/21 00:59:15;;;;;;;7.03;2.47;;;4.40;95.20;;;;;;4994381;28;20038;-64
2021/01/21 01:01:40;;;;;;;5.75;2.53;;;4.20;95.80;;;;;;4993978;28;20081;-64
2021/01/21 01:04:06;;;;;;;7.40;2.60;;;4.20;96.40;;;;;;4993862;28;20034;-64
2021/01/21 01:06:32;;;;;;;7.60;2.47;;;4.30;94.70;;;;;;4992832;28;20030;-64
2021/01/21 01:08:57;;;;;;;7.72;3.05;;;4.20;95.70;;;;;;4994020;28;20038;-65
2021/01/21 01:11:23;;;;;;;6.00;2.38;;;4.20;96.60;;;;;;4998329;28;20069;-64
2021/01/21 01:13:48;;;;;;;7.95;2.67;;;4.10;96.40;;;;;;5000630;28;20030;-64
2021/01/21 01:16:14;;;;;;;7.32;2.65;;;4.10;95.40;;;;;;5000939;28;20022;-64
2021/01/21 01:18:39;;;;;;;6.28;2.30;;;4.20;95.20;;;;;;4984562;28;20176;-64
2021/01/21 01:21:05;;;;;;;6.78;2.58;;;4.30;95.30;;;;;;4982775;28;20031;-64
2021/01/21 01:23:30;;;;;;;6.50;2.60;;;4.30;95.10;;;;;;4982537;28;20489;-64
2021/01/21 01:25:57;;;;;;;7.38;2.72;;;4.20;95.50;;;;;;4984084;28;20038;-64
2021/01/21 01:28:22;;;;;;;6.45;2.55;;;4.30;95.20;;;;;;4983900;28;20019;-64
2021/01/21 01:30:48;;;;;;;6.70;2.58;;;4.30;94.50;;;;;;4985025;28;20038;-64
2021/01/21 01:33:14;;;;;;;5.93;2.00;;;4.20;95.60;;;;;;4993298;28;20040;-64
2021/01/21 01:35:39;;;;;;;10.00;4.28;;;4.10;96.30;;;;;;4993857;28;20030;-64
2021/01/21 01:38:04;;;;;;;8.45;3.45;;;4.20;95.80;;;;;;4993643;28;20022;-64
2021/01/21 01:40:30;;;;;;;8.68;2.88;;;4.20;95.20;;;;;;4992329;28;20065;-64
2021/01/21 01:42:56;;;;;;;7.28;2.88;;;4.20;95.70;;;;;;4992980;28;20077;-64
2021/01/21 01:45:21;;;;;;;5.00;2.20;;;4.20;95.20;;;;;;4996203;28;20026;-64
2021/01/21 01:47:47;;;;;;;6.78;3.15;;;4.10;96.50;;;;;;5001120;28;20523;-64
2021/01/21 01:50:15;;;;;;;7.13;2.42;;;4.10;96.60;;;;;;5006871;28;20108;-64
2021/01/21 01:52:41;;;;;;;7.47;2.92;;;4.10;96.20;;;;;;5012165;28;20034;-64
2021/01/21 01:55:16;;;;;;;8.40;2.70;;;4.00;97.20;;;;;;5012835;28;20064;-64
2021/01/21 01:57:43;;;;;;;9.15;3.42;;;3.90;96.90;;;;;;5012869;28;20025;-64
2021/01/21 02:00:09;;;;;;;7.68;2.97;;;3.90;97.70;;;;;;5012869;28;20018;-64
2021/01/21 02:02:35;;;;;;;7.65;3.03;;;4.00;96.90;;;;;;5012060;28;20392;-64
2021/01/21 02:05:02;;;;;;;7.47;3.00;;;3.90;97.30;;;;;;5012635;28;20033;-64
2021/01/21 02:07:28;;;;;;;10.00;3.42;;;3.80;97.50;;;;;;5012659;28;20022;-64
2021/01/21 02:09:55;;;;;;;7.68;3.42;;;3.80;97.00;;;;;;5012623;28;20057;-64
2021/01/21 02:12:24;;;;;;;9.55;3.40;;;3.90;97.00;;;;;;5011856;28;20022;-64
2021/01/21 02:15:07;;;;;;;8.85;2.47;;;3.90;96.70;;;;;;5012426;28;20443;-65
2021/01/21 02:17:41;;;;;;;7.15;2.67;;;3.90;97.10;;;;;;5012476;28;20026;-64
2021/01/21 02:20:25;;;;;;;6.80;2.78;;;4.00;96.90;;;;;;5012452;28;20507;-64
2021/01/21 02:23:31;;;;;;;8.90;3.33;;;4.10;96.20;;;;;;5011703;28;20030;-64
2021/01/21 02:26:03;;;;;;;7.55;2.60;;;4.20;96.20;;;;;;5012261;28;20056;-64
2021/01/21 02:28:37;;;;;;;6.22;2.72;;;4.00;96.50;;;;;;5012130;28;20030;-64
2021/01/21 02:31:14;;;;;;;5.13;2.20;;;4.30;95.20;;;;;;5012189;28;20030;-64
2021/01/21 02:33:55;;;;;;;7.90;3.30;;;4.20;96.10;;;;;;5011457;28;20029;-64
2021/01/21 02:36:41;;;;;;;8.73;3.40;;;4.10;95.40;;;;;;5011944;28;20087;-64
2021/01/21 02:39:10;;;;;;;10.65;3.55;;;4.10;95.90;;;;;;5011911;28;20078;-64
2021/01/21 02:41:36;;;;;;;12.85;5.72;;;4.20;95.40;;;;;;5012040;28;20026;-64
2021/01/21 02:44:02;;;;;;;13.48;4.75;;;4.20;96.10;;;;;;5011420;28;20369;-64
2021/01/21 02:46:28;;;;;;;13.73;5.00;;;4.00;96.30;;;;;;5010559;28;20268;-64
2021/01/21 02:48:56;;;;;;;12.02;3.92;;;4.10;95.80;;;;;;5011728;28;20545;-64
2021/01/21 02:52:03;;;;;;;8.85;3.13;;;4.30;95.20;;;;;;5011742;28;20033;-64
2021/01/21 02:55:06;;;;;;;10.18;4.78;;;4.50;95.00;;;;;;5005499;28;20041;-64
2021/01/21 02:58:06;;;;;;;9.60;3.63;;;4.30;95.30;;;;;;5010428;28;20029;-64
2021/01/21 03:00:34;;;;;;;9.38;4.07;;;4.40;94.70;;;;;;5011556;28;20492;-64
2021/01/21 03:03:02;;;;;;;10.82;3.97;;;4.40;94.50;;;;;;5010944;28;20038;-64
2021/01/21 03:05:28;;;;;;;7.95;3.20;;;4.50;94.60;;;;;;5011311;28;20033;-64
2021/01/21 03:07:55;;;;;;;15.30;4.97;;;4.70;93.00;;;;;;5011536;28;20033;-64
2021/01/21 03:10:22;;;;;;;16.15;5.50;;;4.70;93.90;;;;;;5011400;28;20038;-64
2021/01/21 03:12:55;;;;;;;12.60;4.65;;;4.50;94.20;;;;;;5010820;28;20018;-64
2021/01/21 03:15:21;;;;;;;10.30;3.75;;;4.50;94.50;;;;;;5011458;28;20034;-64
2021/01/21 03:17:47;;;;;;;9.98;4.13;;;4.40;94.40;;;;;;5011253;28;20022;-64
2021/01/21 03:20:13;;;;;;;12.82;4.03;;;4.40;94.90;;;;;;5011196;28;20022;-64
2021/01/21 03:22:39;;;;;;;9.75;3.45;;;4.50;93.80;;;;;;5010642;28;20439;-64
2021/01/21 03:25:05;;;;;;;8.88;3.10;;;4.50;94.70;;;;;;5009921;28;20057;-64
2021/01/21 03:27:34;;;;;;;8.40;3.25;;;4.40;94.10;;;;;;5009970;28;20087;-64
2021/01/21 03:29:59;;;;;;;6.35;2.35;;;4.30;95.60;;;;;;5008029;28;20061;-64
2021/01/21 03:32:25;;;;;;;7.28;2.70;;;4.30;95.70;;;;;;5010402;28;20053;-64
2021/01/21 03:34:50;;;;;;;8.43;2.88;;;4.20;94.60;;;;;;5011170;28;20534;-64
2021/01/21 03:37:16;;;;;;;8.63;3.15;;;4.20;95.30;;;;;;5011056;28;20070;-64
2021/01/21 03:39:41;;;;;;;10.90;3.95;;;4.00;96.00;;;;;;5011099;28;20092;-64
2021/01/21 03:42:07;;;;;;;7.13;3.72;;;3.90;96.10;;;;;;5010840;28;20080;-64
2021/01/21 03:44:32;;;;;;;8.30;3.03;;;3.70;96.60;;;;;;5010757;28;20072;-64
2021/01/21 03:46:58;;;;;;;6.75;2.53;;;3.90;95.80;;;;;;4985972;28;20053;-64
2021/01/21 03:49:24;;;;;;;7.30;2.45;;;3.90;96.40;;;;;;4986734;28;20027;-64
2021/01/21 03:51:49;;;;;;;6.43;2.55;;;3.80;96.80;;;;;;4971752;28;20031;-64
2021/01/21 03:54:15;;;;;;;6.07;2.50;;;4.00;95.50;;;;;;4972037;28;20031;-64
2021/01/21 03:56:40;;;;;;;5.43;2.25;;;4.10;95.60;;;;;;4972358;28;20031;-64
2021/01/21 03:59:06;;;;;;;7.88;4.88;;;4.10;95.60;;;;;;4971796;28;20026;-63
2021/01/21 04:01:31;;;;;;;6.28;2.63;;;4.20;94.90;;;;;;4979210;28;20026;-64
2021/01/21 04:03:57;;;;;;;7.45;3.30;;;4.20;95.20;;;;;;4990871;28;20103;-64
2021/01/21 04:06:22;;;;;;;5.53;2.55;;;3.90;96.10;;;;;;4991259;28;20041;-64
2021/01/21 04:08:48;;;;;;;6.10;2.38;;;3.80;96.90;;;;;;4995196;28;20102;-64
2021/01/21 04:11:13;;;;;;;7.68;2.85;;;4.00;95.60;;;;;;4995206;28;20027;-64
2021/01/21 04:13:39;;;;;;;8.20;3.55;;;4.00;96.00;;;;;;4993459;28;20049;-64
2021/01/21 04:16:05;;;;;;;7.90;2.38;;;3.80;96.20;;;;;;4995143;28;20018;-64
2021/01/21 04:18:30;;;;;;;8.27;3.03;;;3.80;96.20;;;;;;4995066;28;20109;-64
2021/01/21 04:20:56;;;;;;;5.80;2.28;;;3.80;96.60;;;;;;4995117;28;20027;-64
2021/01/21 04:23:22;;;;;;;5.55;2.25;;;4.00;95.20;;;;;;4994693;28;20473;-64
2021/01/21 04:25:47;;;;;;;7.18;2.50;;;4.00;95.00;;;;;;4994977;28;20026;-64
2021/01/21 04:28:13;;;;;;;6.53;2.53;;;4.20;94.70;;;;;;4994811;28;20101;-64
2021/01/21 04:30:39;;;;;;;5.80;2.72;;;4.30;93.90;;;;;;4994767;28;20034;-64
2021/01/21 04:33:04;;;;;;;4.90;2.20;;;4.20;94.50;;;;;;4994437;28;20477;-64
2021/01/21 04:35:30;;;;;;;6.82;2.50;;;4.10;95.20;;;;;;4994743;28;20026;-64
2021/01/21 04:37:58;;;;;;;12.80;3.47;;;4.20;94.60;;;;;;4994809;28;20030;-64
2021/01/21 04:40:24;;;;;;;9.63;2.95;;;4.20;93.70;;;;;;4994781;28;20489;-64
2021/01/21 04:42:50;;;;;;;5.65;2.63;;;4.30;93.20;;;;;;4994383;28;20072;-64
2021/01/21 04:45:15;;;;;;;6.18;2.45;;;4.50;92.50;;;;;;4994623;28;20045;-64
2021/01/21 04:47:41;;;;;;;8.73;2.85;;;4.80;92.00;;;;;;4994500;28;20484;-64
2021/01/21 04:50:08;;;;;;;6.30;2.55;;;4.70;92.90;;;;;;4994661;28;20109;-64
2021/01/21 04:52:38;;;;;;;6.28;2.58;;;4.60;93.00;;;;;;4994215;28;20109;-64
2021/01/21 04:55:30;;;;;;;6.70;2.75;;;4.70;92.90;;;;;;4994415;28;20400;-64
2021/01/21 04:58:05;;;;;;;8.18;2.55;;;4.80;93.10;;;;;;4993771;28;20038;-64
2021/01/21 05:00:31;;;;;;;7.88;3.92;;;4.60;93.20;;;;;;4994433;28;20041;-64
2021/01/21 05:02:57;;;;;;;10.90;3.33;;;4.60;92.70;;;;;;4994086;28;20485;-64
2021/01/21 05:05:22;;;;;;;8.02;3.30;;;4.80;93.30;;;;;;4994542;28;20042;-64
2021/01/21 05:07:48;;;;;;;8.50;3.08;;;4.80;93.50;;;;;;4994186;28;20035;-64
2021/01/21 05:10:15;;;;;;;6.13;2.50;;;5.10;92.30;;;;;;4994132;28;20062;-64
2021/01/21 05:12:41;;;;;;;7.45;2.83;;;5.10;92.10;;;;;;4993978;28;20038;-64
2021/01/21 05:15:07;;;;;;;6.38;2.50;;;5.10;92.40;;;;;;4994124;28;20621;-64
2021/01/21 05:17:33;;;;;;;5.00;2.47;;;5.10;92.40;;;;;;4993785;28;20064;-64
2021/01/21 05:20:00;;;;;;;5.15;2.38;;;5.00;91.80;;;;;;4994171;28;20434;-64
2021/01/21 05:22:26;;;;;;;5.70;2.30;;;5.30;91.40;;;;;;4993831;28;20062;-64
2021/01/21 05:24:51;;;;;;;7.43;2.70;;;5.30;91.80;;;;;;4994150;28;20108;-65
2021/01/21 05:27:19;;;;;;;6.82;2.80;;;5.20;92.10;;;;;;4994136;28;20243;-64
2021/01/21 05:29:46;;;;;;;5.97;2.67;;;5.30;91.10;;;;;;4993928;28;20388;-64
2021/01/21 05:32:17;;;;;;;6.22;2.50;;;5.30;91.20;;;;;;4993523;28;20024;-64
2021/01/21 05:34:44;;;;;;;5.57;2.30;;;5.30;91.70;;;;;;4993606;28;20038;-64
2021/01/21 05:37:11;;;;;;;6.57;2.50;;;5.20;92.00;;;;;;4993583;28;20038;-64
2021/01/21 05:39:38;;;;;;;8.45;2.92;;;5.20;92.20;;;;;;4993830;28;20057;-64
2021/01/21 05:42:05;;;;;;;6.55;3.10;;;5.30;91.70;;;;;;4993355;28;20026;-64
2021/01/21 05:44:32;;;;;;;6.40;2.63;;;5.20;91.70;;;;;;4993459;28;20061;-65
2021/01/21 05:47:01;;;;;;;5.88;2.65;;;5.10;92.50;;;;;;4993906;28;20112;-64
2021/01/21 05:49:27;;;;;;;6.03;2.58;;;4.90;92.60;;;;;;5008326;28;20396;-64
2021/01/21 05:51:55;;;;;;;6.22;2.28;;;5.00;92.80;;;;;;4993222;28;20023;-64
2021/01/21 05:54:22;;;;;;;5.68;2.45;;;4.90;93.00;;;;;;4993112;28;20034;-64
2021/01/21 05:56:48;;;;;;;8.88;2.50;;;4.80;92.80;;;;;;4993231;28;20113;-64
2021/01/21 05:59:15;;;;;;;8.70;2.22;;;4.80;92.40;;;;;;4993068;28;20105;-64
2021/01/21 06:01:40;;;;;;;6.18;2.50;;;4.60;93.00;;;;;;4992992;28;20034;-64
2021/01/21 06:04:06;;;;;;;5.90;2.45;;;4.40;93.90;;;;;;4992989;28;20088;-64
2021/01/21 06:06:37;;;;;;;5.55;2.50;;;4.50;94.00;;;;;;4993159;28;20030;-64
2021/01/21 06:09:03;;;;;;;6.60;2.45;;;4.70;93.30;;;;;;4993067;28;20069;-64
2021/01/21 06:11:30;;;;;;;5.72;2.58;;;4.80;93.80;;;;;;4993028;28;20507;-64
2021/01/21 06:13:56;;;;;;;8.45;2.90;;;4.80;92.80;;;;;;4992767;28;20076;-64
2021/01/21 06:16:24;;;;;;;6.40;2.47;;;4.90;92.80;;;;;;4992936;28;20033;-64
2021/01/21 06:18:49;;;;;;;8.80;2.78;;;4.90;93.40;;;;;;4993040;28;20033;-64
2021/01/21 06:21:18;;;;;;;5.75;2.50;;;5.00;93.00;;;;;;4992944;28;20030;-64
2021/01/21 06:23:48;;;;;;;7.00;2.60;;;5.00;92.90;;;;;;4991230;28;20397;-64
2021/01/21 06:26:17;;;;;;;6.37;2.23;;;4.90;93.30;;;;;;4992829;28;20121;-65
2021/01/21 06:28:45;;;;;;;4.93;2.20;;;5.20;92.50;;;;;;4992674;28;20367;-64
2021/01/21 06:31:14;;;;;;;4.28;1.98;;;5.30;92.60;;;;;;4992043;28;20535;-65
2021/01/21 06:33:40;;;;;;;4.57;1.98;;;5.50;90.40;;;;;;4991114;28;20058;-65
2021/01/21 06:36:11;;;;;;;5.30;2.05;;;5.60;91.70;;;;;;4992644;28;20093;-64
2021/01/21 06:38:42;;;;;;;4.85;1.83;;;5.50;90.80;;;;;;4992815;28;20019;-64
2021/01/21 06:41:14;;;;;;;5.70;2.10;;;5.60;91.30;;;;;;4992611;28;20105;-64
2021/01/21 06:43:40;;;;;;;4.50;1.80;;;5.70;89.40;;;;;;4983688;28;20054;-64
2021/01/21 06:46:12;;;;;;;5.22;2.20;;;5.70;89.90;;;;;;4988143;28;20026;-64
2021/01/21 06:48:37;;;;;;;6.47;2.67;;;5.80;89.90;;;;;;4992431;28;20014;-64
2021/01/21 06:51:09;;;;;;;9.75;5.95;;;5.90;90.80;;;;;;4992403;28;20032;-64
2021/01/21 06:53:36;;;;;;;7.07;3.67;;;5.60;90.40;;;;;;4991940;28;20054;-65
2021/01/21 06:56:01;;;;;;;8.18;4.25;;;5.60;89.50;;;;;;4992292;28;20021;-66
2021/01/21 06:59:06;;;;;;;7.03;2.55;;;5.50;90.50;;;;;;4992269;28;20101;-65
2021/01/21 07:01:31;;;;;;;4.45;1.60;;;5.40;90.40;;;;;;4931793;29;20099;-66
2021/01/21 07:04:10;;;;;;;4.43;1.83;;;5.80;87.00;;;;;;4931477;29;20031;-66
2021/01/21 07:06:54;;;;;;;5.15;1.90;;;5.80;90.00;;;;;;4931436;29;20206;-65
2021/01/21 07:09:24;;;;;;;4.57;1.98;;;5.80;88.20;;;;;;4931742;29;20030;-66
2021/01/21 07:11:54;;;;;;;5.72;1.90;;;6.20;84.40;;;;;;4931343;29;20119;-65
2021/01/21 07:14:21;;;;;;;19.40;13.93;;;6.10;87.30;;;;;;4931685;29;20027;-64
2021/01/21 07:16:53;;;;;;;6.68;1.90;;;6.30;85.70;;;;;;4931590;29;20039;-64
2021/01/21 07:19:47;;;;;;;6.10;2.65;;;6.30;83.60;;;;;;4931663;29;20040;-64
2021/01/21 07:22:18;;;;;;;4.38;1.88;;;6.30;85.80;;;;;;4931377;29;20035;-64
2021/01/21 07:24:54;;;;;;;5.60;2.03;;;6.40;84.10;;;;;;4931588;29;20541;-64
2021/01/21 07:27:20;;;;;;;6.55;2.03;;;6.50;82.30;;;;;;4931587;29;20150;-64
2021/01/21 07:29:46;;;;;;;4.57;1.50;;;6.70;80.90;;;;;;4931794;29;20486;-64
2021/01/21 07:32:12;;;;;;;5.60;2.25;;;6.70;82.10;;;;;;4959597;28;20045;-64
2021/01/21 07:34:44;;;;;;;4.90;2.15;;;6.70;80.30;;;;;;4991691;28;20023;-64
2021/01/21 07:37:42;;;;;;;3.80;1.80;;;6.60;82.70;;;;;;4991814;28;20031;-64
2021/01/21 07:40:10;;;;;;;6.93;1.90;;;6.50;82.40;;;;;;4991662;28;20034;-64
2021/01/21 07:42:38;;;;;;;4.13;1.83;;;6.40;85.20;;;;;;5023090;28;20030;-64
2021/01/21 07:45:13;;;;;;;7.57;2.25;;;6.30;84.20;;;;;;4991464;28;20080;-64
2021/01/21 07:47:41;;;;;;;5.75;1.77;;;6.30;86.10;;;;;;4991588;28;20029;-64
2021/01/21 07:50:33;;;;;;;5.63;2.05;;;6.50;85.10;;;;;;4982753;28;20072;-64
2021/01/21 07:53:04;;;;;;;4.38;1.52;;;6.50;85.60;;;;;;4971753;28;20022;-65
2021/01/21 07:55:35;;;;;;;5.50;2.10;;;6.60;83.80;;;;;;4972087;28;20468;-64
2021/01/21 07:58:15;;;;;;;4.97;1.95;;;6.90;82.10;;;;;;4990380;28;20034;-65
2021/01/21 08:00:40;;;;;;;3.42;1.42;;;6.90;83.40;;;;;;4991257;28;20038;-65
2021/01/21 08:03:06;;;;;;;5.53;1.60;;;6.90;84.20;;;;;;4991071;28;20109;-64
2021/01/21 08:05:31;;;;;;;5.40;2.22;;;6.90;82.00;;;;;;4991232;28;20070;-64
2021/01/21 08:07:57;;;;;;;4.63;1.67;;;7.10;82.00;;;;;;4991388;28;20142;-65
2021/01/21 08:10:31;;;;;;;4.50;1.80;;;7.10;82.90;;;;;;4983706;28;20031;-64
2021/01/21 08:13:02;;;;;;;4.22;1.77;;;7.00;82.20;;;;;;4984413;28;20022;-65
2021/01/21 08:15:29;;;;;;;4.75;1.50;;;7.00;85.90;;;;;;4991147;28;20022;-65
2021/01/21 08:17:56;;;;;;;4.20;1.80;;;6.80;85.00;;;;;;4991177;28;20022;-65
2021/01/21 08:20:24;;;;;;;7.25;1.85;;;6.70;87.80;;;;;;4991123;28;20042;-64
2021/01/21 08:23:03;;;;;;;3.92;1.70;;;6.40;88.40;;;;;;4990946;28;20096;-64
2021/01/21 08:25:33;;;;;;;5.13;2.00;;;6.30;89.60;;;;;;4991592;28;20031;-64
2021/01/21 08:27:58;;;;;;;4.93;1.83;;;6.10;90.40;;;;;;4991019;28;20022;-64
2021/01/21 08:30:26;;;;;;;4.15;1.55;;;5.90;91.00;;;;;;4991058;28;20117;-64
2021/01/21 08:33:12;;;;;;;3.83;1.63;;;6.10;88.60;;;;;;4989414;28;20022;-65
2021/01/21 08:35:49;;;;;;;6.32;2.30;;;6.30;89.80;;;;;;4991001;28;20069;-64
2021/01/21 08:38:18;;;;;;;5.05;2.17;;;6.50;88.50;;;;;;4991003;28;20026;-64
2021/01/21 08:40:45;;;;;;;5.15;2.03;;;6.80;88.00;;;;;;4991020;28;20405;-65
2021/01/21 08:43:11;;;;;;;3.65;1.45;;;6.90;86.00;;;;;;4990659;28;20046;-64
2021/01/21 08:45:37;;;;;;;4.45;1.35;;;7.20;86.80;;;;;;4991161;28;20109;-65
2021/01/21 08:48:02;;;;;;;3.85;1.40;;;7.90;78.50;;;;;;4990903;28;20101;-64
2021/01/21 08:50:39;;;;;;;3.33;1.20;;;8.90;71.10;;;;;;4990883;28;20030;-64
2021/01/21 08:53:07;;;;;;;4.80;1.50;;;9.00;72.10;;;;;;4992192;28;20025;-64
2021/01/21 08:55:41;;;;;;;2.95;1.20;;;9.20;70.40;;;;;;4994374;28;20030;-65
2021/01/21 08:58:08;;;;;;;11.52;1.73;;;9.40;72.20;;;;;;4994433;28;20527;-65
2021/01/21 09:00:34;;;;;;;47.03;42.47;;;9.40;73.70;;;;;;4994370;28;20026;-64
2021/01/21 09:03:00;;;;;;;9.13;7.85;;;9.60;68.20;;;;;;4994205;28;20333;-64
2021/01/21 09:05:27;;;;;;;4.57;1.52;;;9.80;70.20;;;;;;4994176;28;20472;-64
2021/01/21 09:08:08;;;;;;;3.53;1.25;;;10.00;71.30;;;;;;4992785;28;20030;-64
2021/01/21 09:10:43;;;;;;;2.55;1.02;;;10.20;65.40;;;;;;4994185;28;20027;-64
2021/01/21 09:13:10;;;;;;;5.47;1.70;;;10.50;63.80;;;;;;4994024;28;20022;-64
2021/01/21 09:15:56;;;;;;;3.40;1.30;;;10.90;62.30;;;;;;4994207;28;20018;-64
2021/01/21 09:18:23;;;;;;;3.15;1.10;;;11.30;60.90;;;;;;4993920;28;20113;-64
2021/01/21 09:20:49;;;;;;;3.13;0.80;;;11.60;58.20;;;;;;4994088;28;20026;-64
2021/01/21 09:23:17;;;;;;;3.60;1.00;;;11.80;59.20;;;;;;4993728;28;20018;-64
2021/01/21 09:25:43;;;;;;;3.85;1.33;;;11.80;57.40;;;;;;4993914;28;20432;-64
2021/01/21 09:28:10;;;;;;;2.35;1.02;;;11.90;58.60;;;;;;4993439;28;20077;-65
2021/01/21 09:30:36;;;;;;;3.58;1.20;;;11.90;58.50;;;;;;4993842;28;20026;-65
2021/01/21 09:33:02;;;;;;;3.15;1.08;;;11.90;56.60;;;;;;4993642;28;20049;-64
2021/01/21 09:35:27;;;;;;;4.15;1.20;;;12.00;58.70;;;;;;4992385;28;20026;-64
2021/01/21 09:37:55;;;;;;;3.38;1.00;;;12.00;58.00;;;;;;4993781;28;20031;-64
2021/01/21 09:40:23;;;;;;;3.55;1.02;;;12.10;56.70;;;;;;4993759;28;20496;-65
2021/01/21 09:42:49;;;;;;;5.10;1.13;;;12.10;58.00;;;;;;4993338;28;20026;-65
2021/01/21 09:45:16;;;;;;;5.78;1.23;;;12.10;57.20;;;;;;4993648;28;20259;-65
2021/01/21 09:47:42;;;;;;;6.22;1.20;;;12.10;57.80;;;;;;4992274;28;20030;-64
2021/01/21 09:50:09;;;;;;;2.47;0.88;;;12.10;60.00;;;;;;4993530;28;20053;-65
2021/01/21 09:52:35;;;;;;;3.40;1.15;;;12.10;58.60;;;;;;4993304;28;20081;-65
2021/01/21 09:55:03;;;;;;;3.45;1.10;;;12.10;59.70;;;;;;4993321;28;20038;-64
2021/01/21 09:57:29;;;;;;;4.55;1.33;;;12.00;60.00;;;;;;4992071;28;20026;-64
2021/01/21 09:59:55;;;;;;;3.75;0.95;;;12.10;60.20;;;;;;4993540;28;20362;-65
2021/01/21 10:02:22;;;;;;;3.15;1.10;;;12.10;61.10;;;;;;4993204;28;20089;-65
2021/01/21 10:04:47;;;;;;;3.38;1.00;;;12.10;60.30;;;;;;4992244;28;20042;-65
2021/01/21 10:07:13;;;;;;;8.80;2.25;;;11.90;60.30;;;;;;4993379;28;20106;-65
2021/01/21 10:09:39;;;;;;;3.65;1.50;;;11.80;61.20;;;;;;4993844;28;20117;-64
2021/01/21 10:12:06;;;;;;;4.03;1.05;;;12.00;61.80;;;;;;4993250;28;20029;-65
2021/01/21 10:14:32;;;;;;;4.82;1.00;;;12.00;63.90;;;;;;4993362;28;20023;-65
2021/01/21 10:16:58;;;;;;;3.97;1.02;;;12.10;63.90;;;;;;4993236;28;20026;-65
2021/01/21 10:19:25;;;;;;;3.55;1.15;;;12.20;64.10;;;;;;4993124;28;20034;-65
2021/01/21 10:21:50;;;;;;;2.00;0.98;;;12.20;63.40;;;;;;4992708;28;20080;-65
2021/01/21 10:24:16;;;;;;;3.00;0.98;;;12.20;62.80;;;;;;4992903;28;20117;-64
2021/01/21 10:26:41;;;;;;;3.00;0.93;;;12.10;63.60;;;;;;4992866;28;20036;-65
2021/01/21 10:29:07;;;;;;;1.85;0.80;;;12.10;63.30;;;;;;4992769;28;20400;-65
2021/01/21 10:31:33;;;;;;;4.15;1.20;;;12.10;63.70;;;;;;4992697;28;20029;-64
2021/01/21 10:33:58;;;;;;;3.80;0.90;;;12.30;63.00;;;;;;4992351;28;20037;-65
2021/01/21 10:36:24;;;;;;;3.03;1.20;;;12.20;62.00;;;;;;4993106;28;20022;-64
2021/01/21 10:38:50;;;;;;;2.85;1.20;;;12.20;62.20;;;;;;4991335;28;20104;-64
2021/01/21 10:41:16;;;;;;;3.10;0.80;;;12.20;63.70;;;;;;4992494;28;20058;-65
2021/01/21 10:43:41;;;;;;;4.47;1.10;;;12.20;63.30;;;;;;4992187;28;20392;-65
2021/01/21 10:46:07;;;;;;;4.85;1.30;;;12.30;64.00;;;;;;4992454;28;20026;-64
2021/01/21 10:48:32;;;;;;;2.22;0.95;;;12.50;63.70;;;;;;4992391;28;20101;-65
2021/01/21 10:50:58;;;;;;;2.58;1.00;;;12.60;62.10;;;;;;4991052;28;20073;-65
2021/01/21 10:53:24;;;;;;;2.60;0.90;;;12.60;62.20;;;;;;4992045;28;20027;-65
2021/01/21 10:55:49;;;;;;;2.95;1.10;;;12.80;62.40;;;;;;4992099;28;20081;-65
2021/01/21 10:58:15;;;;;;;3.25;1.20;;;12.90;61.50;;;;;;4992225;28;20023;-64
2021/01/21 11:00:44;;;;;;;2.08;0.80;;;13.00;63.00;;;;;;4990940;28;20038;-65
2021/01/21 11:03:09;;;;;;;3.30;1.20;;;12.90;60.90;;;;;;4991894;28;20084;-65
2021/01/21 11:05:35;;;;;;;2.78;0.90;;;12.80;61.30;;;;;;4992086;28;20031;-65
2021/01/21 11:08:00;;;;;;;3.50;1.15;;;12.70;62.80;;;;;;4992086;28;20037;-64
2021/01/21 11:10:26;;;;;;;4.60;1.23;;;12.90;62.70;;;;;;4991871;28;20035;-65
2021/01/21 11:12:52;;;;;;;3.72;0.88;;;12.90;62.90;;;;;;4991814;28;20018;-65
2021/01/21 11:15:18;;;;;;;2.50;0.98;;;13.00;62.80;;;;;;4991598;28;20081;-65
2021/01/21 11:17:45;;;;;;;3.90;1.02;;;13.10;64.00;;;;;;4991899;28;20023;-65
2021/01/21 11:20:12;;;;;;;4.95;1.15;;;13.10;65.60;;;;;;4991909;28;20054;-64
2021/01/21 11:22:38;;;;;;;2.05;0.90;;;13.10;62.80;;;;;;4992074;28;20061;-65
2021/01/21 11:25:09;;;;;;;2.17;0.95;;;12.90;62.60;;;;;;4991656;28;20041;-65
2021/01/21 11:27:36;;;;;;;7.50;1.10;;;12.90;65.50;;;;;;4991813;28;20373;-64
2021/01/21 11:30:04;;;;;;;3.67;0.90;;;13.20;63.60;;;;;;4989867;28;20034;-65
2021/01/21 11:32:30;;;;;;;1.60;0.70;;;13.60;63.70;;;;;;4991451;28;20027;-65
2021/01/21 11:34:55;;;;;;;3.08;0.98;;;14.10;63.40;;;;;;4991560;28;20022;-65
2021/01/21 11:37:21;;;;;;;4.45;1.00;;;14.10;63.90;;;;;;4991577;28;20033;-65
2021/01/21 11:39:46;;;;;;;5.22;1.08;;;14.00;63.40;;;;;;4991664;28;20097;-65
2021/01/21 11:42:12;;;;;;;2.58;1.00;;;13.80;64.30;;;;;;4991491;28;20133;-65
2021/01/21 11:44:37;;;;;;;1.50;1.00;;;13.60;65.40;;;;;;4991537;28;20030;-65
2021/01/21 11:47:03;;;;;;;2.15;0.80;;;13.70;67.00;;;;;;4991638;28;20026;-65
2021/01/21 11:49:28;;;;;;;1.90;0.70;;;14.70;66.20;;;;;;4991522;28;20488;-65
2021/01/21 11:51:55;;;;;;;2.20;0.90;;;15.70;61.70;;;;;;4991138;28;20029;-65
2021/01/21 11:54:21;;;;;;;1.88;0.60;;;16.00;59.60;;;;;;4991248;28;20033;-65
2021/01/21 11:56:47;;;;;;;1.77;0.60;;;15.30;59.80;;;;;;4991953;28;20022;-65
2021/01/21 11:59:12;;;;;;;1.00;0.60;;;15.80;59.10;;;;;;4991313;28;20374;-65
2021/01/21 12:01:38;;;;;;;1.90;0.85;;;15.80;57.10;;;;;;4991274;28;20030;-65
2021/01/21 12:04:03;;;;;;;1.92;0.70;;;14.70;61.40;;;;;;4991173;28;20041;-65
2021/01/21 12:06:29;;;;;;;3.40;0.70;;;14.70;63.50;;;;;;4991360;28;20037;-65
2021/01/21 12:08:54;;;;;;;1.77;0.63;;;14.40;63.80;;;;;;4991237;28;20026;-65
2021/01/21 12:11:20;;;;;;;2.92;0.80;;;14.00;66.60;;;;;;4990041;28;20027;-65
2021/01/21 12:13:45;;;;;;;3.55;0.90;;;14.30;66.10;;;;;;4991088;28;20070;-65
2021/01/21 12:16:11;;;;;;;1.40;0.70;;;14.30;65.30;;;;;;4990088;28;20039;-65
2021/01/21 12:18:37;;;;;;;1.20;0.60;;;14.20;66.80;;;;;;4991229;28;20015;-66
2021/01/21 12:21:02;;;;;;;2.75;1.00;;;14.10;66.60;;;;;;4991196;28;20169;-65
2021/01/21 12:23:28;;;;;;;4.15;0.70;;;14.40;66.90;;;;;;4990835;28;20060;-66
2021/01/21 12:25:53;;;;;;;1.45;0.50;;;14.70;64.80;;;;;;4991431;28;20027;-65
2021/01/21 12:28:19;;;;;;;2.00;0.70;;;15.30;63.00;;;;;;4992907;28;20026;-65
2021/01/21 12:30:45;;;;;;;1.45;0.70;;;16.20;59.00;;;;;;4994834;28;20031;-66
2021/01/21 12:33:10;;;;;;;2.30;0.70;;;15.80;59.70;;;;;;4994734;28;20029;-65
2021/01/21 12:35:36;;;;;;;1.65;0.80;;;16.00;59.60;;;;;;4994736;28;20109;-65
2021/01/21 12:38:01;;;;;;;6.22;0.85;;;16.20;59.50;;;;;;4994871;28;20444;-66
2021/01/21 12:40:27;;;;;;;1.90;0.50;;;16.60;58.10;;;;;;4994919;28;20040;-65
2021/01/21 12:42:52;;;;;;;3.35;0.93;;;15.80;60.80;;;;;;4993379;28;20604;-66
2021/01/21 12:45:18;;;;;;;1.27;0.50;;;15.90;60.70;;;;;;4994679;28;20026;-66
2021/01/21 12:47:43;;;;;;;4.43;0.60;;;15.80;60.20;;;;;;4994874;28;20034;-73
2021/01/21 12:50:10;;;;;;;3.42;1.52;;;15.60;60.80;;;;;;4996002;28;20069;-73
2021/01/21 12:52:35;;;;;;;1.08;0.50;;;15.40;61.40;;;;;;4993384;28;20022;-65
2021/01/21 12:55:01;;;;;;;1.10;0.60;;;14.20;65.60;;;;;;4994783;28;20092;-66
2021/01/21 12:57:27;;;;;;;2.22;0.80;;;14.00;67.70;;;;;;4999971;28;20097;-65